Time;durP1;ratioP1;P1;durP2;ratioP2;P2;SDS_P1;SDS_P2;PMS_P1;PMS_P2;Temp;Humidity;BMP_temperature;BMP_pressure;BME280_temperature;BME280_humidity;BME280_pressure;Samples;Min_cycle;Max_cycle;Signal;HPM_P1;HPM_P2
2021/11/27 00:00:17;;;;;;;2.25;2.05;;;;;;;5.33;97.13;98294.59;4957162;28;20063;-45
2021/11/27 00:02:45;;;;;;;1.92;1.70;;;;;;;5.22;96.21;98291.25;4956422;28;20529;-49
2021/11/27 00:05:14;;;;;;;2.63;2.00;;;;;;;5.13;95.90;98287.63;4956226;28;20043;-49
2021/11/27 00:07:43;;;;;;;2.65;1.67;;;;;;;5.02;94.81;98286.97;4955954;28;20075;-47
2021/11/27 00:10:13;;;;;;;3.15;2.40;;;;;;;4.95;94.56;98288.44;4956269;28;20040;-48
2021/11/27 00:12:41;;;;;;;3.40;2.13;;;;;;;4.88;94.80;98281.53;4955703;28;20035;-49
2021/11/27 00:15:10;;;;;;;2.30;1.77;;;;;;;4.89;94.98;98283.13;4956093;28;20137;-49
2021/11/27 00:17:41;;;;;;;2.28;1.73;;;;;;;4.88;95.28;98295.03;4956216;28;20126;-48
2021/11/27 00:20:16;;;;;;;2.20;1.77;;;;;;;4.91;95.17;98290.94;4957451;28;20063;-48
2021/11/27 00:22:44;;;;;;;4.43;1.77;;;;;;;4.90;94.60;98292.03;4948007;28;20040;-48
2021/11/27 00:25:12;;;;;;;4.97;2.10;;;;;;;4.85;94.10;98301.00;4954751;29;20403;-47
2021/11/27 00:27:40;;;;;;;1.70;1.55;;;;;;;4.81;93.56;98301.88;4955182;28;20035;-49
2021/11/27 00:30:13;;;;;;;3.50;1.70;;;;;;;4.75;93.50;98297.66;4956893;28;20039;-48
2021/11/27 00:32:41;;;;;;;1.27;1.17;;;;;;;4.67;92.89;98299.91;4953929;28;20063;-50
2021/11/27 00:35:09;;;;;;;3.53;1.70;;;;;;;4.61;92.78;98298.38;4954825;29;20102;-49
2021/11/27 00:37:37;;;;;;;1.58;1.45;;;;;;;4.56;93.39;98295.75;4955539;28;20051;-49
2021/11/27 00:40:09;;;;;;;1.95;1.35;;;;;;;4.49;92.22;98295.31;4963298;28;20469;-48
2021/11/27 00:42:44;;;;;;;3.80;1.63;;;;;;;4.44;93.06;98303.47;4957641;28;20490;-52
2021/11/27 00:45:14;;;;;;;3.40;1.40;;;;;;;4.40;91.60;98302.44;4955310;28;20078;-47
2021/11/27 00:47:45;;;;;;;2.45;1.20;;;;;;;4.33;92.15;98301.97;4955511;28;20058;-51
2021/11/27 00:50:14;;;;;;;1.58;1.20;;;;;;;4.29;91.82;98299.06;4956330;28;20035;-51
2021/11/27 00:52:41;;;;;;;3.78;1.58;;;;;;;4.25;91.85;98301.53;4955296;28;20051;-48
2021/11/27 00:55:10;;;;;;;4.05;1.75;;;;;;;4.26;91.98;98299.66;4953817;29;20062;-52
2021/11/27 00:57:40;;;;;;;3.35;1.80;;;;;;;4.27;92.31;98303.94;4954050;29;20047;-48
2021/11/27 01:00:11;;;;;;;3.75;1.80;;;;;;;4.25;91.73;98301.53;4955036;28;20040;-50
2021/11/27 01:02:39;;;;;;;3.22;1.80;;;;;;;4.20;91.44;98298.91;4954149;28;20052;-52
2021/11/27 01:05:10;;;;;;;3.53;1.55;;;;;;;4.21;91.80;98299.69;4986345;28;20421;-50
2021/11/27 01:07:39;;;;;;;3.90;1.73;;;;;;;4.21;91.17;98297.81;4986268;28;20047;-48
2021/11/27 01:10:10;;;;;;;2.13;1.30;;;;;;;4.17;90.91;98299.47;4985436;28;20043;-52
2021/11/27 01:12:37;;;;;;;3.45;1.40;;;;;;;4.13;90.48;98298.44;4956229;28;20497;-49
2021/11/27 01:15:08;;;;;;;4.07;1.90;;;;;;;4.13;90.65;98303.03;4985724;28;20516;-48
2021/11/27 01:17:36;;;;;;;3.15;1.38;;;;;;;4.10;89.87;98304.41;4955165;28;20126;-49
2021/11/27 01:20:06;;;;;;;3.72;1.60;;;;;;;4.07;89.07;98307.69;4953487;29;20069;-49
2021/11/27 01:22:34;;;;;;;3.03;1.67;;;;;;;4.06;89.96;98314.16;4954741;28;20047;-51
2021/11/27 01:25:03;;;;;;;3.33;1.52;;;;;;;4.03;88.94;98306.66;4985416;28;20126;-51
2021/11/27 01:27:31;;;;;;;5.95;1.80;;;;;;;4.01;88.67;98316.91;4953498;28;20109;-47
2021/11/27 01:29:58;;;;;;;3.40;1.67;;;;;;;3.99;89.09;98306.44;4954624;28;20074;-52
2021/11/27 01:32:26;;;;;;;2.30;1.50;;;;;;;4.01;89.13;98315.00;4956049;28;20047;-48
2021/11/27 01:34:56;;;;;;;1.65;1.23;;;;;;;4.00;89.49;98323.41;4963409;28;20055;-48
2021/11/27 01:37:23;;;;;;;2.75;1.27;;;;;;;3.99;88.38;98324.47;4954180;29;20125;-48
2021/11/27 01:39:51;;;;;;;1.83;1.10;;;;;;;4.01;88.95;98322.28;4985030;28;20070;-48
2021/11/27 01:42:19;;;;;;;1.67;1.15;;;;;;;4.04;88.57;98321.72;4953127;29;20439;-48
2021/11/27 01:44:48;;;;;;;1.75;1.35;;;;;;;4.09;89.02;98331.63;4954673;28;20039;-49
2021/11/27 01:47:23;;;;;;;2.20;1.13;;;;;;;4.07;87.82;98325.75;4967983;28;20062;-46
2021/11/27 01:49:53;;;;;;;1.73;1.00;;;;;;;4.05;88.09;98339.50;4953382;29;20043;-49
2021/11/27 01:52:21;;;;;;;3.63;1.15;;;;;;;4.05;88.48;98334.13;4985567;28;20122;-51
2021/11/27 01:54:49;;;;;;;2.35;1.52;;;;;;;4.01;87.77;98336.56;4953777;28;20139;-52
2021/11/27 01:57:17;;;;;;;2.35;1.58;;;;;;;4.03;87.84;98347.06;4952332;28;20106;-53
2021/11/27 01:59:45;;;;;;;2.78;2.17;;;;;;;4.03;87.35;98347.06;4953241;29;20039;-53
2021/11/27 02:02:18;;;;;;;4.22;2.67;;;;;;;4.02;87.30;98348.16;4952989;29;20514;-52
2021/11/27 02:04:46;;;;;;;2.55;2.10;;;;;;;4.01;87.78;98343.84;4922218;29;20047;-53
2021/11/27 02:07:15;;;;;;;3.33;2.00;;;;;;;4.00;87.38;98347.66;4985002;28;20378;-50
2021/11/27 02:09:43;;;;;;;1.77;1.60;;;;;;;3.99;86.83;98340.63;4952336;29;20090;-51
2021/11/27 02:12:12;;;;;;;1.52;1.42;;;;;;;3.98;86.94;98344.44;4952601;29;20066;-53
2021/11/27 02:14:42;;;;;;;1.35;0.98;;;;;;;3.96;86.95;98354.69;4986103;28;20829;-49
2021/11/27 02:17:19;;;;;;;1.63;1.27;;;;;;;3.96;86.83;98354.69;4952389;29;20090;-52
2021/11/27 02:19:51;;;;;;;1.45;1.15;;;;;;;3.96;86.88;98357.38;4984548;28;20059;-47
2021/11/27 02:22:19;;;;;;;1.73;1.23;;;;;;;3.96;87.05;98349.28;4951829;29;20059;-50
2021/11/27 02:24:49;;;;;;;1.50;1.40;;;;;;;3.96;87.00;98352.00;4953792;28;20090;-49
2021/11/27 02:27:19;;;;;;;4.15;2.38;;;;;;;3.95;86.33;98358.47;4953296;28;20409;-53
2021/11/27 02:29:47;;;;;;;2.42;2.20;;;;;;;3.97;86.98;98353.59;4952630;29;20047;-49
2021/11/27 02:32:15;;;;;;;2.58;2.13;;;;;;;3.98;86.59;98356.00;4953512;28;20055;-48
2021/11/27 02:34:43;;;;;;;4.03;2.35;;;;;;;4.00;86.72;98358.44;4955014;28;20035;-50
2021/11/27 02:37:12;;;;;;;3.65;2.00;;;;;;;4.01;86.34;98349.25;4951729;28;20106;-53
2021/11/27 02:39:50;;;;;;;2.97;1.88;;;;;;;4.03;86.63;98347.06;4952296;29;20043;-50
2021/11/27 02:42:20;;;;;;;3.40;2.28;;;;;;;4.04;86.85;98348.66;4952532;29;20047;-50
2021/11/27 02:44:48;;;;;;;2.75;1.92;;;;;;;4.03;86.27;98347.06;4937705;29;20050;-47
2021/11/27 02:47:16;;;;;;;2.20;2.00;;;;;;;4.04;86.59;98345.97;4953326;28;20445;-50
2021/11/27 02:49:44;;;;;;;3.13;1.98;;;;;;;4.04;86.70;98341.41;4984453;28;20043;-48
2021/11/27 02:52:12;;;;;;;2.30;2.10;;;;;;;4.06;86.46;98351.88;4953376;29;20051;-51
2021/11/27 02:54:40;;;;;;;1.73;1.63;;;;;;;4.08;86.93;98355.09;4954243;28;20450;-48
2021/11/27 02:57:08;;;;;;;2.33;2.03;;;;;;;4.07;86.49;98358.88;4952364;28;20049;-50
2021/11/27 02:59:36;;;;;;;1.98;1.60;;;;;;;4.05;85.90;98367.25;4984361;28;20075;-48
2021/11/27 03:02:05;;;;;;;2.75;1.98;;;;;;;4.05;86.58;98366.44;4951865;29;20039;-48
2021/11/27 03:04:36;;;;;;;1.75;1.63;;;;;;;4.05;86.91;98374.53;4953220;28;20055;-47
2021/11/27 03:07:05;;;;;;;1.77;1.67;;;;;;;4.02;86.26;98378.59;4951817;28;20039;-49
2021/11/27 03:09:32;;;;;;;1.67;1.58;;;;;;;3.98;86.39;98376.75;4957305;29;20122;-46
2021/11/27 03:12:03;;;;;;;1.73;1.33;;;;;;;3.98;87.17;98371.38;4956105;29;20130;-49
2021/11/27 03:14:31;;;;;;;1.60;1.48;;;;;;;3.97;87.14;98388.59;4958582;28;20071;-50
2021/11/27 03:17:00;;;;;;;1.77;1.67;;;;;;;3.96;86.59;98381.63;4955569;28;20377;-48
2021/11/27 03:19:32;;;;;;;2.35;1.80;;;;;;;3.96;87.38;98387.00;4972095;28;20138;-46
2021/11/27 03:22:00;;;;;;;2.85;1.83;;;;;;;3.95;87.28;98390.81;4987495;28;20055;-50
2021/11/27 03:24:33;;;;;;;2.53;1.80;;;;;;;3.95;87.46;98393.50;4956573;28;20110;-53
2021/11/27 03:27:01;;;;;;;2.63;1.90;;;;;;;3.93;87.64;98392.97;4950379;29;20051;-48
2021/11/27 03:29:29;;;;;;;2.90;2.00;;;;;;;3.94;87.84;98391.88;4956058;29;20039;-52
2021/11/27 03:32:03;;;;;;;3.60;1.88;;;;;;;3.95;87.78;98401.59;4939758;29;20051;-50
2021/11/27 03:34:45;;;;;;;3.10;1.98;;;;;;;3.94;87.94;98397.25;4955499;28;20394;-48
2021/11/27 03:37:13;;;;;;;2.22;2.03;;;;;;;3.95;87.49;98398.88;4955786;28;20454;-52
2021/11/27 03:39:41;;;;;;;5.30;2.08;;;;;;;3.94;87.75;98405.34;4987444;28;20047;-48
2021/11/27 03:42:13;;;;;;;2.58;2.20;;;;;;;3.93;87.99;98401.84;4955836;29;20413;-47
2021/11/27 03:44:42;;;;;;;4.65;2.50;;;;;;;3.93;87.55;98401.06;4961825;28;20164;-48
2021/11/27 03:47:11;;;;;;;3.20;2.33;;;;;;;3.91;87.71;98404.03;4962693;28;20206;-51
2021/11/27 03:49:39;;;;;;;2.42;2.05;;;;;;;3.92;88.00;98410.22;4954967;29;20039;-47
2021/11/27 03:52:07;;;;;;;2.75;2.45;;;;;;;3.90;88.06;98418.59;4955523;29;20081;-46
2021/11/27 03:54:39;;;;;;;3.97;2.65;;;;;;;3.91;88.37;98414.00;4956040;28;20517;-48
2021/11/27 03:57:07;;;;;;;3.90;2.50;;;;;;;3.89;87.97;98422.34;4954792;28;20043;-48
2021/11/27 03:59:36;;;;;;;4.25;2.67;;;;;;;3.89;88.01;98422.34;4956674;29;20050;-46
2021/11/27 04:02:05;;;;;;;3.58;2.50;;;;;;;3.89;88.21;98426.94;4954975;29;20117;-52
2021/11/27 04:04:35;;;;;;;6.53;2.70;;;;;;;3.89;88.51;98424.25;4955870;28;20402;-50
2021/11/27 04:07:04;;;;;;;3.03;2.47;;;;;;;3.92;88.62;98432.59;4971380;28;20458;-52
2021/11/27 04:09:32;;;;;;;3.55;2.53;;;;;;;3.94;88.21;98433.09;4954779;29;20047;-49
2021/11/27 04:12:00;;;;;;;2.67;2.35;;;;;;;3.96;88.23;98432.81;4955004;28;20389;-53
2021/11/27 04:14:57;;;;;;;2.70;2.50;;;;;;;3.98;88.30;98436.03;4896261;29;20049;-52
2021/11/27 04:17:25;;;;;;;11.15;3.08;;;;;;;4.00;88.29;98441.94;4896667;29;20496;-52
2021/11/27 04:19:52;;;;;;;3.25;2.80;;;;;;;3.98;87.82;98446.81;4895478;29;20048;-51
2021/11/27 04:22:20;;;;;;;4.05;2.47;;;;;;;3.97;88.49;98450.56;4896715;29;20065;-50
2021/11/27 04:24:57;;;;;;;2.83;2.60;;;;;;;3.97;88.17;98447.88;4895489;29;20121;-50
2021/11/27 04:27:25;;;;;;;4.78;2.60;;;;;;;3.96;88.83;98459.75;4881017;29;20108;-54
2021/11/27 04:29:53;;;;;;;2.80;2.60;;;;;;;3.96;88.70;98459.75;4881091;29;20052;-54
2021/11/27 04:32:21;;;;;;;4.45;2.80;;;;;;;3.95;89.03;98458.16;4880394;29;20574;-54
2021/11/27 04:35:05;;;;;;;3.15;2.60;;;;;;;3.96;89.48;98459.75;4880953;29;20092;-51
2021/11/27 04:37:33;;;;;;;4.68;2.90;;;;;;;3.94;89.36;98461.91;4872620;29;20115;-50
2021/11/27 04:40:03;;;;;;;4.10;2.90;;;;;;;3.94;89.28;98467.31;4880743;29;20045;-55
2021/11/27 04:42:32;;;;;;;6.38;3.42;;;;;;;3.95;89.81;98474.31;4865668;29;20132;-53
2021/11/27 04:45:00;;;;;;;3.50;2.97;;;;;;;3.97;89.45;98480.22;4895795;29;20553;-52
2021/11/27 04:47:28;;;;;;;4.57;3.60;;;;;;;3.98;89.30;98484.53;4879679;29;20199;-55
2021/11/27 04:49:57;;;;;;;5.35;3.30;;;;;;;3.97;89.40;98477.50;4880795;29;20048;-51
2021/11/27 04:52:24;;;;;;;5.18;3.58;;;;;;;3.97;89.04;98480.22;4944983;29;20102;-51
2021/11/27 04:54:54;;;;;;;5.78;3.45;;;;;;;3.95;89.36;98480.50;4954508;29;20043;-48
2021/11/27 04:57:22;;;;;;;6.78;3.75;;;;;;;3.94;89.19;98488.84;4956479;28;20051;-52
2021/11/27 04:59:50;;;;;;;6.53;3.70;;;;;;;3.93;89.53;98488.06;4955438;29;20133;-47
2021/11/27 05:02:17;;;;;;;5.82;3.63;;;;;;;3.95;89.98;98485.09;4953577;29;20138;-50
2021/11/27 05:04:46;;;;;;;7.50;4.20;;;;;;;3.91;89.89;98490.22;4953680;28;20094;-50
2021/11/27 05:07:13;;;;;;;8.02;4.80;;;;;;;3.84;89.94;98487.84;4955079;29;20047;-49
2021/11/27 05:09:41;;;;;;;8.93;4.72;;;;;;;3.79;90.26;98493.28;4965137;28;20047;-45
2021/11/27 05:12:09;;;;;;;6.82;4.55;;;;;;;3.79;91.12;98497.88;4952747;29;20043;-50
2021/11/27 05:14:37;;;;;;;7.28;4.60;;;;;;;3.76;91.28;98501.94;4955079;28;20053;-48
2021/11/27 05:17:05;;;;;;;9.20;5.25;;;;;;;3.75;91.35;98508.41;4987269;28;20070;-48
2021/11/27 05:19:37;;;;;;;9.07;4.63;;;;;;;3.81;91.33;98501.88;4958064;28;20059;-51
2021/11/27 05:22:12;;;;;;;;;;;;;;;3.88;91.00;98503.47;4986197;28;20055;-46
2021/11/27 05:24:44;;;;;;;7.55;4.72;;;;;;;3.90;90.38;98504.00;4985584;28;20016;-52
2021/11/27 05:27:30;;;;;;;8.32;5.10;;;;;;;3.93;90.80;98504.22;4953976;28;20110;-52
2021/11/27 05:30:24;;;;;;;7.90;5.28;;;;;;;3.92;90.31;98513.41;4930985;28;20054;-52
2021/11/27 05:35:38;;;;;;;9.63;6.00;;;;;;;3.92;90.97;98515.28;4953248;29;20493;-50
2021/11/27 05:38:09;;;;;;;8.50;5.72;;;;;;;3.92;90.51;98515.28;4953088;28;20047;-48
2021/11/27 05:40:38;;;;;;;8.18;5.68;;;;;;;3.93;90.83;98516.91;4960639;28;20138;-49
2021/11/27 05:43:05;;;;;;;9.45;6.32;;;;;;;3.92;90.83;98521.50;4953314;29;20102;-49
2021/11/27 05:45:35;;;;;;;9.60;6.47;;;;;;;3.90;91.04;98520.97;4952639;29;20053;-48
2021/11/27 05:48:04;;;;;;;10.13;6.07;;;;;;;3.89;91.13;98521.22;4985135;28;20047;-49
2021/11/27 05:50:54;;;;;;;8.82;5.82;;;;;;;3.91;91.34;98527.16;4953601;28;20143;-51
2021/11/27 05:53:22;;;;;;;10.90;6.75;;;;;;;3.91;91.71;98535.22;4954496;28;20051;-51
2021/11/27 05:55:50;;;;;;;10.25;6.95;;;;;;;3.93;91.66;98538.44;4953880;29;20509;-48
2021/11/27 05:58:20;;;;;;;12.25;7.47;;;;;;;3.91;91.60;98543.31;4954217;28;20039;-50
2021/11/27 06:00:48;;;;;;;12.00;7.07;;;;;;;3.90;91.38;98552.50;4954670;28;20039;-48
2021/11/27 06:03:16;;;;;;;9.95;7.35;;;;;;;3.90;91.56;98555.97;4953572;29;20086;-46
2021/11/27 06:05:43;;;;;;;11.20;7.28;;;;;;;3.88;91.70;98557.34;4954153;28;20051;-48
2021/11/27 06:08:11;;;;;;;13.07;7.53;;;;;;;3.88;92.08;98565.44;4953744;28;20055;-49
2021/11/27 06:10:38;;;;;;;10.82;7.07;;;;;;;3.86;91.68;98568.38;4955096;28;20401;-49
2021/11/27 06:13:06;;;;;;;10.38;7.43;;;;;;;3.86;92.03;98571.09;4952576;29;20062;-52
2021/11/27 06:15:33;;;;;;;10.75;7.57;;;;;;;3.88;92.27;98582.38;4953776;28;20065;-50
2021/11/27 06:18:01;;;;;;;13.27;7.63;;;;;;;3.89;92.64;98578.59;4952574;29;20043;-51
2021/11/27 06:20:29;;;;;;;11.13;7.30;;;;;;;3.92;92.13;98582.63;4954723;28;20142;-46
2021/11/27 06:22:57;;;;;;;11.13;7.80;;;;;;;3.92;91.56;98577.22;4953708;28;20087;-48
2021/11/27 06:25:25;;;;;;;12.18;7.80;;;;;;;3.91;91.99;98575.63;4953767;29;20520;-47
2021/11/27 06:27:54;;;;;;;11.90;8.23;;;;;;;3.92;92.17;98580.75;4954052;28;20126;-48
2021/11/27 06:30:23;;;;;;;11.25;7.85;;;;;;;3.91;92.44;98583.72;4954348;28;20393;-51
2021/11/27 06:32:50;;;;;;;13.85;8.15;;;;;;;3.90;92.25;98590.19;4953346;28;20058;-49
2021/11/27 06:35:18;;;;;;;9.95;6.28;;;;;;;3.92;92.71;98582.63;4953626;29;20039;-49
2021/11/27 06:37:46;;;;;;;13.65;8.85;;;;;;;3.90;92.24;98593.69;4953601;28;20469;-50
2021/11/27 06:40:14;;;;;;;9.80;7.10;;;;;;;3.91;92.71;98605.28;4953617;29;20069;-49
2021/11/27 06:43:01;;;;;;;14.95;9.00;;;;;;;3.87;92.82;98602.31;4958866;28;20575;-49
2021/11/27 06:45:47;;;;;;;17.10;10.05;;;;;;;3.89;92.69;98615.50;4941091;29;20043;-51
2021/11/27 06:48:16;;;;;;;13.68;9.20;;;;;;;3.98;93.59;98621.94;4952132;29;20047;-53
2021/11/27 06:50:44;;;;;;;18.63;13.38;;;;;;;3.94;92.78;98626.25;4953579;28;20073;-50
2021/11/27 06:53:12;;;;;;;18.58;12.80;;;;;;;3.92;93.03;98623.03;4954647;28;20051;-50
2021/11/27 06:55:40;;;;;;;21.48;14.13;;;;;;;3.90;92.83;98627.91;4953387;29;20371;-53
2021/11/27 06:58:07;;;;;;;23.15;14.98;;;;;;;3.86;92.77;98633.03;4952930;29;20529;-52
2021/11/27 07:00:35;;;;;;;20.63;13.65;;;;;;;3.86;93.34;98640.31;4951864;28;20058;-51
2021/11/27 07:03:38;;;;;;;19.58;14.10;;;;;;;3.81;93.14;98647.34;4954060;28;20043;-51
2021/11/27 07:06:32;;;;;;;21.35;14.40;;;;;;;3.84;93.75;98656.75;4935689;29;20102;-49
2021/11/27 07:08:59;;;;;;;21.48;14.80;;;;;;;3.81;93.57;98658.13;4951263;28;20059;-50
2021/11/27 07:11:53;;;;;;;25.17;15.13;;;;;;;3.80;93.70;98661.91;4951625;29;20126;-51
2021/11/27 07:14:21;;;;;;;21.88;15.88;;;;;;;3.80;93.68;98667.28;4952796;28;20043;-49
2021/11/27 07:16:49;;;;;;;24.63;15.07;;;;;;;3.81;93.55;98674.28;4952987;28;20450;-54
2021/11/27 07:19:16;;;;;;;23.27;15.23;;;;;;;3.82;93.48;98685.84;4953146;28;20066;-52
2021/11/27 07:21:44;;;;;;;23.25;16.15;;;;;;;3.82;93.59;98689.38;4952948;28;20051;-52
2021/11/27 07:24:11;;;;;;;22.45;16.35;;;;;;;3.82;93.54;98692.06;4956186;28;20401;-54
2021/11/27 07:26:39;;;;;;;25.95;16.70;;;;;;;3.81;93.51;98690.44;4952631;28;20138;-54
2021/11/27 07:29:08;;;;;;;24.30;16.25;;;;;;;3.82;93.82;98692.06;4952913;28;20047;-55
2021/11/27 07:31:42;;;;;;;23.70;17.00;;;;;;;3.81;93.31;98695.03;4951767;29;20336;-55
2021/11/27 07:34:10;;;;;;;23.30;16.17;;;;;;;3.82;93.60;98702.84;4955516;28;20501;-54
2021/11/27 07:36:38;;;;;;;25.35;17.27;;;;;;;3.83;93.82;98715.22;4957556;28;20051;-53
2021/11/27 07:39:10;;;;;;;29.23;18.52;;;;;;;3.83;93.65;98709.81;4952671;28;20113;-52
2021/11/27 07:41:38;;;;;;;28.17;19.67;;;;;;;3.82;93.57;98713.63;4952586;29;20043;-54
2021/11/27 07:44:14;;;;;;;29.92;18.70;;;;;;;3.80;93.73;98715.78;4952639;28;20066;-50
2021/11/27 07:47:00;;;;;;;31.73;21.35;;;;;;;3.80;93.70;98718.47;4952899;28;20488;-51
2021/11/27 07:49:53;;;;;;;27.08;20.13;;;;;;;3.78;93.69;98726.00;4952964;29;20047;-51
2021/11/27 07:52:41;;;;;;;;;;;;;;;3.77;93.40;98735.16;4948422;29;20066;-50
2021/11/27 07:55:09;;;;;;;30.30;21.33;;;;;;;3.74;93.42;98732.22;4956372;28;19922;-51
2021/11/27 07:57:37;;;;;;;25.55;18.80;;;;;;;3.73;93.53;98735.97;4949007;28;20050;-53
2021/11/27 08:00:05;;;;;;;27.67;19.30;;;;;;;3.72;93.83;98732.47;4953576;29;20047;-53
2021/11/27 08:02:39;;;;;;;25.58;17.75;;;;;;;3.75;93.91;98734.66;4955799;29;20402;-48
2021/11/27 08:05:07;;;;;;;23.35;16.38;;;;;;;3.80;93.86;98742.72;4957218;28;20055;-52
2021/11/27 08:07:36;;;;;;;27.05;19.52;;;;;;;3.80;93.22;98740.00;4955328;28;20078;-54
2021/11/27 08:10:09;;;;;;;27.08;19.55;;;;;;;3.81;93.57;98749.69;4955795;28;20043;-50
2021/11/27 08:12:38;;;;;;;28.45;20.33;;;;;;;3.78;93.74;98754.84;4955979;28;20131;-53
2021/11/27 08:15:07;;;;;;;30.10;21.23;;;;;;;3.78;93.44;98754.84;4956071;28;20066;-51
2021/11/27 08:17:35;;;;;;;29.15;20.77;;;;;;;3.74;93.34;98765.34;4956419;28;20054;-55
2021/11/27 08:20:05;;;;;;;30.73;21.55;;;;;;;3.70;93.69;98764.25;4955152;28;20043;-51
2021/11/27 08:22:33;;;;;;;30.75;20.05;;;;;;;3.71;93.28;98771.28;4952914;29;20070;-53
2021/11/27 08:25:01;;;;;;;32.65;21.00;;;;;;;3.73;93.00;98777.19;4956547;28;20050;-53
2021/11/27 08:27:28;;;;;;;28.88;19.58;;;;;;;3.74;93.66;98776.09;4956028;28;20067;-54
2021/11/27 08:29:56;;;;;;;30.15;21.52;;;;;;;3.71;93.33;98786.63;4955960;28;20411;-50
2021/11/27 08:32:24;;;;;;;25.95;17.35;;;;;;;3.70;93.35;98788.50;4956794;28;20043;-51
2021/11/27 08:34:52;;;;;;;26.58;18.52;;;;;;;3.67;93.70;98789.06;4955703;28;20451;-53
2021/11/27 08:37:19;;;;;;;24.95;18.02;;;;;;;3.63;93.15;98809.53;4955987;29;20058;-50
2021/11/27 08:39:50;;;;;;;27.45;18.02;;;;;;;3.61;93.18;98803.63;4954674;28;20509;-51
2021/11/27 08:42:21;;;;;;;27.67;18.55;;;;;;;3.59;93.64;98797.69;4955490;28;20421;-50
2021/11/27 08:44:50;;;;;;;24.63;17.05;;;;;;;3.58;93.75;98793.38;4956729;28;20371;-53
2021/11/27 08:47:18;;;;;;;24.80;17.35;;;;;;;3.60;94.25;98804.69;4954921;28;20054;-48
2021/11/27 08:49:47;;;;;;;25.30;17.77;;;;;;;3.56;93.97;98806.31;4955527;28;20039;-52
2021/11/27 08:52:15;;;;;;;21.20;13.68;;;;;;;3.59;94.80;98809.28;4985745;28;20486;-51
2021/11/27 08:54:42;;;;;;;21.33;14.52;;;;;;;3.67;94.37;98818.69;4955964;28;20486;-53
2021/11/27 08:57:10;;;;;;;20.60;14.32;;;;;;;3.69;93.64;98819.22;4954847;28;20043;-52
2021/11/27 08:59:38;;;;;;;21.92;15.15;;;;;;;3.71;93.79;98829.72;4955178;29;20047;-52
2021/11/27 09:02:05;;;;;;;18.98;14.07;;;;;;;3.73;93.93;98836.47;4956126;28;20089;-51
2021/11/27 09:04:34;;;;;;;22.65;15.20;;;;;;;3.70;93.84;98839.66;4955979;28;20035;-50
2021/11/27 09:07:02;;;;;;;25.13;17.00;;;;;;;3.67;94.29;98834.84;4955025;28;20047;-53
2021/11/27 09:09:30;;;;;;;18.60;12.23;;;;;;;3.69;94.11;98832.69;4954294;28;20153;-53
2021/11/27 09:11:59;;;;;;;18.98;13.45;;;;;;;3.73;93.74;98844.53;4955137;29;20047;-54
2021/11/27 09:14:27;;;;;;;19.67;13.30;;;;;;;3.76;93.84;98843.19;4963419;28;20043;-54
2021/11/27 09:16:55;;;;;;;18.48;11.82;;;;;;;3.81;93.67;98840.47;4954435;28;20039;-53
2021/11/27 09:19:22;;;;;;;20.30;11.55;;;;;;;3.81;93.36;98841.28;4954136;28;20062;-50
2021/11/27 09:21:50;;;;;;;19.08;12.25;;;;;;;3.76;93.52;98848.56;4953815;28;20133;-51
2021/11/27 09:24:19;;;;;;;20.05;12.43;;;;;;;3.70;93.29;98849.66;4955523;28;20383;-51
2021/11/27 09:26:47;;;;;;;17.92;12.52;;;;;;;3.65;93.39;98845.06;4953943;28;20044;-51
2021/11/27 09:29:18;;;;;;;18.90;12.23;;;;;;;3.63;93.58;98853.44;4955263;28;20048;-50
2021/11/27 09:31:46;;;;;;;21.98;12.25;;;;;;;3.68;93.16;98857.19;4954580;28;20061;-52
2021/11/27 09:34:14;;;;;;;17.90;12.35;;;;;;;3.73;93.71;98858.00;4960733;28;20155;-51
2021/11/27 09:36:43;;;;;;;16.63;10.93;;;;;;;3.79;93.06;98859.59;4954334;29;20047;-51
2021/11/27 09:39:13;;;;;;;19.38;11.90;;;;;;;3.89;92.82;98871.44;4958633;28;20038;-53
2021/11/27 09:41:43;;;;;;;18.85;11.30;;;;;;;3.95;92.49;98876.56;4944482;28;20046;-56
2021/11/27 09:44:12;;;;;;;18.88;11.60;;;;;;;3.98;92.55;98880.59;4955041;28;20038;-50
2021/11/27 09:46:42;;;;;;;17.10;9.38;;;;;;;4.05;94.24;98879.22;4954773;28;20227;-50
2021/11/27 09:49:17;;;;;;;17.92;11.73;;;;;;;4.10;93.04;98874.91;4953648;28;20047;-54
2021/11/27 09:51:45;;;;;;;18.15;10.80;;;;;;;4.14;92.87;98876.78;4952407;28;20043;-48
2021/11/27 09:54:17;;;;;;;19.33;10.65;;;;;;;4.35;98.17;98874.81;4962267;28;20501;-54
2021/11/27 09:56:46;;;;;;;17.65;9.00;;;;;;;4.41;96.84;98875.63;4956670;28;20569;-53
2021/11/27 09:59:14;;;;;;;14.55;9.52;;;;;;;4.38;93.82;98876.19;4960566;28;20505;-54
2021/11/27 10:01:45;;;;;;;14.50;8.52;;;;;;;4.45;96.92;98872.09;4954285;28;20039;-52
2021/11/27 10:04:14;;;;;;;19.65;9.63;;;;;;;4.58;98.58;98876.09;4958243;28;20105;-51
2021/11/27 10:06:44;;;;;;;14.20;7.82;;;;;;;4.45;95.73;98871.31;4954451;28;20114;-51
2021/11/27 10:09:17;;;;;;;19.80;9.75;;;;;;;4.35;94.57;98864.03;4965188;28;20053;-54
2021/11/27 10:11:47;;;;;;;21.52;9.40;;;;;;;4.25;92.29;98866.78;4958392;28;20065;-51
2021/11/27 10:14:15;;;;;;;17.20;9.18;;;;;;;4.18;92.38;98869.75;4956998;28;20039;-50
2021/11/27 10:17:13;;;;;;;17.13;9.25;;;;;;;4.14;92.74;98868.69;4957678;28;20055;-49
2021/11/27 10:19:43;;;;;;;14.73;7.43;;;;;;;4.15;92.82;98872.19;4884902;29;20104;-51
2021/11/27 10:22:13;;;;;;;15.70;7.60;;;;;;;4.20;92.21;98864.88;4892845;29;20052;-51
2021/11/27 10:24:41;;;;;;;18.63;7.50;;;;;;;4.26;92.08;98873.78;4886122;29;20179;-47
2021/11/27 10:27:24;;;;;;;16.55;7.90;;;;;;;4.35;92.41;98876.72;4875201;29;20068;-52
2021/11/27 10:30:12;;;;;;;14.82;7.85;;;;;;;4.43;93.19;98873.47;4893387;29;20059;-50
2021/11/27 10:32:42;;;;;;;20.48;8.10;;;;;;;4.45;92.44;98882.09;4887551;29;20535;-47
2021/11/27 10:35:12;;;;;;;18.50;7.78;;;;;;;4.43;91.33;98885.03;4889516;29;20199;-53
2021/11/27 10:37:41;;;;;;;15.60;7.68;;;;;;;4.40;90.70;98879.38;4893533;29;20048;-53
2021/11/27 10:40:23;;;;;;;14.82;7.38;;;;;;;4.38;90.42;98876.97;4883345;29;20052;-51
2021/11/27 10:42:56;;;;;;;19.48;8.18;;;;;;;4.34;90.37;98881.31;4882132;29;20044;-49
2021/11/27 10:45:32;;;;;;;17.48;7.93;;;;;;;4.34;90.58;98875.09;4886972;29;20056;-49
2021/11/27 10:48:13;;;;;;;19.45;7.72;;;;;;;4.32;90.01;98883.47;4860170;29;20399;-51
2021/11/27 10:50:55;;;;;;;17.85;7.95;;;;;;;4.29;90.03;98878.63;4855853;29;20056;-52
2021/11/27 10:53:24;;;;;;;19.27;7.95;;;;;;;4.31;89.62;98886.44;4892027;29;20056;-50
2021/11/27 10:55:52;;;;;;;16.60;7.30;;;;;;;4.34;90.22;98885.88;4905897;28;20058;-49
2021/11/27 10:58:24;;;;;;;19.08;8.70;;;;;;;4.37;90.22;98886.13;4982201;28;20039;-55
2021/11/27 11:00:52;;;;;;;21.10;9.18;;;;;;;4.43;90.75;98884.25;4952393;28;20150;-50
2021/11/27 11:03:36;;;;;;;18.23;8.50;;;;;;;4.47;90.71;98882.59;4952899;29;20051;-53
2021/11/27 11:06:25;;;;;;;19.75;8.65;;;;;;;4.45;90.64;98888.28;4953248;28;20047;-50
2021/11/27 11:08:54;;;;;;;15.13;6.65;;;;;;;4.48;90.95;98885.03;4944536;29;20043;-51
2021/11/27 11:11:25;;;;;;;19.65;8.32;;;;;;;4.56;90.77;98894.44;4953109;28;20050;-51
2021/11/27 11:13:55;;;;;;;15.90;7.80;;;;;;;4.59;90.57;98887.69;4943707;29;20035;-53
2021/11/27 11:16:26;;;;;;;14.38;6.72;;;;;;;4.68;94.15;98889.53;4967855;28;20123;-51
2021/11/27 11:19:33;;;;;;;12.73;6.03;;;;;;;4.79;97.21;98894.88;4952095;28;20498;-54
2021/11/27 11:22:11;;;;;;;13.50;6.45;;;;;;;4.86;98.48;98898.09;4856815;29;20069;-47
2021/11/27 11:24:42;;;;;;;18.55;8.10;;;;;;;4.89;97.97;98897.53;4874904;29;20076;-53
2021/11/27 11:27:10;;;;;;;15.98;7.78;;;;;;;4.85;95.68;98897.25;4874929;29;20049;-47
2021/11/27 11:29:50;;;;;;;17.10;7.80;;;;;;;4.78;93.88;98901.34;4876389;29;20056;-53
2021/11/27 11:32:21;;;;;;;15.05;6.68;;;;;;;4.85;97.94;98902.66;4878745;29;20081;-53
2021/11/27 11:34:52;;;;;;;15.38;6.72;;;;;;;5.04;100.00;98905.53;4878150;29;20049;-51
2021/11/27 11:37:21;;;;;;;16.77;8.10;;;;;;;4.82;95.41;98902.41;4878797;29;20054;-50
2021/11/27 11:39:49;;;;;;;14.88;6.75;;;;;;;4.83;98.72;98902.13;4886470;29;20064;-51
2021/11/27 11:42:18;;;;;;;18.02;8.68;;;;;;;4.80;97.04;98902.69;4859499;29;20060;-53
2021/11/27 11:44:46;;;;;;;13.43;7.75;;;;;;;4.81;98.27;98898.94;4878657;29;20163;-51
2021/11/27 11:47:14;;;;;;;17.98;9.80;;;;;;;4.87;96.97;98899.69;4849719;29;20061;-53
2021/11/27 11:49:43;;;;;;;17.05;8.32;;;;;;;4.71;91.68;98901.66;4877566;29;20075;-51
2021/11/27 11:52:33;;;;;;;16.23;8.98;;;;;;;4.63;90.77;98907.63;4897743;29;20047;-50
2021/11/27 11:55:05;;;;;;;17.00;9.23;;;;;;;4.54;90.32;98907.38;4956324;28;20062;-53